createdAt,value
2018-07-12T14:56:47.859Z,27.34
2018-07-12T14:57:47.609Z,27.57
2018-07-12T14:58:48.139Z,27.72
2018-07-12T14:59:47.495Z,27.69
2018-07-12T15:00:47.488Z,27.50
2018-07-12T15:01:47.732Z,27.54
2018-07-12T15:02:47.586Z,27.54
2018-07-12T15:03:47.522Z,27.57
2018-07-12T15:04:47.689Z,27.59
2018-07-12T15:05:47.445Z,27.65
2018-07-12T15:06:47.436Z,27.59
2018-07-12T15:07:47.630Z,27.87
2018-07-12T15:08:47.518Z,28.24
2018-07-12T15:09:47.389Z,28.33
2018-07-12T15:10:47.381Z,28.43
2018-07-12T15:11:47.371Z,28.59
2018-07-12T15:12:47.359Z,28.52
2018-07-12T15:13:47.415Z,28.49
2018-07-12T15:14:47.341Z,28.11
2018-07-12T15:15:47.368Z,28.02
2018-07-12T15:16:47.409Z,28.02
2018-07-12T15:17:47.312Z,27.99
2018-07-12T15:18:47.357Z,28.07
2018-07-12T15:19:47.288Z,28.14
2018-07-12T15:20:47.284Z,28.25
2018-07-12T15:21:47.276Z,28.34
2018-07-12T15:22:47.355Z,28.52
2018-07-12T15:23:47.488Z,28.71
2018-07-12T15:24:47.308Z,28.56
2018-07-12T15:25:47.254Z,28.37
2018-07-12T15:26:47.234Z,28.49
2018-07-12T15:27:47.225Z,28.31
2018-07-12T15:28:47.258Z,28.21
2018-07-12T15:29:47.175Z,27.97
2018-07-12T15:30:47.403Z,27.78
2018-07-12T15:31:47.163Z,27.43
2018-07-12T15:32:47.143Z,27.22
2018-07-12T15:33:47.202Z,27.10
2018-07-12T15:34:47.124Z,27.09
2018-07-12T15:35:47.121Z,27.31
2018-07-12T15:36:47.113Z,27.54
2018-07-12T15:37:47.104Z,27.81
2018-07-12T15:38:47.116Z,27.82
2018-07-12T15:39:47.144Z,27.96
2018-07-12T15:40:47.072Z,27.82
2018-07-12T15:41:47.421Z,28.06
2018-07-12T15:42:47.052Z,28.07
2018-07-12T15:43:47.037Z,28.21
2018-07-12T15:44:47.098Z,28.14
2018-07-12T15:45:47.018Z,28.02
2018-07-12T15:46:47.010Z,27.62
2018-07-12T15:47:46.993Z,27.24
2018-07-12T15:48:46.993Z,26.73
2018-07-12T15:49:47.040Z,26.55
2018-07-12T15:50:46.964Z,26.30
2018-07-12T15:51:46.990Z,26.12
2018-07-12T15:52:46.978Z,25.94
2018-07-12T15:53:46.945Z,26.09
2018-07-12T15:54:46.981Z,26.05
2018-07-12T15:55:46.911Z,25.91
2018-07-12T15:56:46.912Z,25.92
2018-07-12T15:57:46.901Z,25.82
2018-07-12T15:58:46.897Z,25.72
2018-07-12T15:59:46.986Z,25.77
2018-07-12T16:00:46.861Z,25.76
2018-07-12T16:01:46.868Z,25.82
2018-07-12T16:02:46.864Z,25.80
2018-07-12T16:03:46.826Z,25.91
2018-07-12T16:04:46.956Z,25.98
2018-07-12T16:05:46.918Z,26.28
2018-07-12T16:06:46.802Z,26.54
2018-07-12T16:07:46.811Z,26.43
2018-07-12T16:08:46.790Z,26.45
2018-07-12T16:09:46.842Z,26.51
2018-07-12T16:10:46.764Z,26.62
2018-07-12T16:11:46.735Z,26.66
2018-07-12T16:12:46.720Z,26.62
2018-07-12T16:13:46.726Z,26.57
2018-07-12T16:14:46.778Z,26.30
2018-07-12T16:15:46.700Z,26.36
2018-07-12T16:16:46.688Z,26.58
2018-07-12T16:17:46.672Z,26.63
2018-07-12T16:18:46.665Z,26.54
2018-07-12T16:19:46.717Z,26.39
2018-07-12T16:20:46.647Z,26.28
2018-07-12T16:21:46.665Z,26.10
2018-07-12T16:22:46.622Z,25.99
2018-07-12T16:23:46.638Z,25.90
2018-07-12T16:24:46.675Z,25.98
2018-07-12T16:25:46.640Z,26.32
2018-07-12T16:26:46.588Z,26.67
2018-07-12T16:27:46.578Z,26.72
2018-07-12T16:28:46.563Z,26.58
2018-07-12T16:29:46.619Z,26.47
2018-07-12T16:30:46.546Z,26.33
2018-07-12T16:31:46.534Z,26.07
2018-07-12T16:32:46.527Z,25.92
2018-07-12T16:33:46.511Z,25.77
2018-07-12T16:34:46.618Z,25.72
2018-07-12T16:35:46.495Z,25.62
2018-07-12T16:36:46.513Z,25.77
2018-07-12T16:37:47.532Z,26.06
2018-07-12T16:38:46.463Z,26.28
2018-07-12T16:39:46.537Z,26.54
2018-07-12T16:40:46.459Z,26.65
2018-07-12T16:41:46.469Z,26.73
2018-07-12T16:42:46.440Z,26.94
2018-07-12T16:43:46.680Z,27.00
2018-07-12T16:44:46.477Z,27.18
2018-07-12T16:45:46.437Z,27.21
2018-07-12T16:46:46.427Z,27.37
2018-07-12T16:47:46.378Z,27.51
2018-07-12T16:48:46.367Z,27.62
2018-07-12T16:49:46.482Z,27.85
2018-07-12T16:50:46.344Z,28.12
2018-07-12T16:51:46.412Z,28.18
2018-07-12T16:52:46.344Z,28.04
2018-07-12T16:53:46.397Z,27.97
2018-07-12T16:54:46.694Z,27.79
2018-07-12T16:55:46.275Z,27.59
2018-07-12T16:56:46.273Z,27.60
2018-07-12T16:57:46.253Z,27.44
2018-07-12T16:58:46.244Z,27.07
2018-07-12T16:59:46.232Z,26.94
2018-07-12T17:00:46.300Z,26.97
2018-07-12T17:01:46.214Z,27.09
2018-07-12T17:02:46.203Z,27.09
2018-07-12T17:03:46.208Z,27.10
2018-07-12T17:04:46.176Z,27.12
2018-07-12T17:05:46.230Z,27.14
2018-07-12T17:06:46.163Z,27.14
2018-07-12T17:07:46.181Z,27.13
2018-07-12T17:08:46.146Z,27.19
2018-07-12T17:09:46.129Z,27.28
2018-07-12T17:10:46.187Z,27.31
2018-07-12T17:11:46.125Z,27.19
2018-07-12T17:12:46.127Z,27.21
2018-07-12T17:13:46.091Z,27.06
2018-07-12T17:14:46.073Z,27.18
2018-07-12T17:15:46.139Z,27.17
2018-07-12T17:16:46.054Z,27.10
2018-07-12T17:17:46.049Z,27.22
2018-07-12T17:18:46.042Z,27.32
2018-07-12T17:19:46.079Z,27.28
2018-07-12T17:20:46.097Z,27.24
2018-07-12T17:21:46.003Z,27.28
2018-07-12T17:22:45.992Z,27.28
2018-07-12T17:23:46.014Z,27.18
2018-07-12T17:24:45.965Z,27.13
2018-07-12T17:25:46.026Z,27.00
2018-07-12T17:26:45.953Z,26.99
2018-07-12T17:27:45.938Z,27.00
2018-07-12T17:28:45.929Z,27.06
2018-07-12T17:29:45.927Z,27.03
2018-07-12T17:30:45.966Z,26.94
2018-07-12T17:31:45.899Z,26.80
2018-07-12T17:32:45.879Z,26.72
2018-07-12T17:33:45.874Z,26.80
2018-07-12T17:34:45.863Z,26.87
2018-07-12T17:35:45.935Z,26.91
2018-07-12T17:36:45.832Z,26.97
2018-07-12T17:37:45.829Z,26.97
2018-07-12T17:38:45.825Z,26.92
2018-07-12T17:39:45.806Z,27.04
2018-07-12T17:40:45.802Z,27.10
2018-07-12T17:41:45.856Z,27.14
2018-07-12T17:42:45.780Z,27.14
2018-07-12T17:43:45.768Z,27.13
2018-07-12T17:44:45.755Z,27.14
2018-07-12T17:45:45.749Z,27.06
2018-07-12T17:46:45.810Z,27.07
2018-07-12T17:47:45.752Z,27.00
2018-07-12T17:48:45.708Z,27.00
2018-07-12T17:49:45.702Z,27.03
2018-07-12T17:50:45.690Z,27.03
2018-07-12T17:51:45.750Z,26.97
2018-07-12T17:52:45.669Z,26.85
2018-07-12T17:53:45.659Z,27.04
2018-07-12T17:54:45.649Z,27.00
2018-07-12T17:55:45.637Z,27.12
2018-07-12T17:56:45.693Z,27.06
2018-07-12T17:57:45.637Z,27.04
2018-07-12T17:58:45.603Z,27.00
2018-07-12T17:59:45.599Z,27.06
2018-07-12T18:00:45.584Z,27.07
2018-07-12T18:01:45.638Z,27.10
2018-07-12T18:02:45.562Z,27.28
2018-07-12T18:03:45.552Z,27.40
2018-07-12T18:04:45.546Z,27.41
2018-07-12T18:05:45.529Z,27.25
2018-07-12T18:06:45.583Z,27.25
2018-07-12T18:07:45.503Z,27.27
2018-07-12T18:08:45.501Z,27.18
2018-07-12T18:09:45.489Z,27.19
2018-07-12T18:10:45.479Z,27.24
2018-07-12T18:11:45.529Z,27.31
2018-07-12T18:12:45.452Z,27.19
2018-07-12T18:13:45.441Z,27.04
2018-07-12T18:14:45.464Z,26.95
2018-07-12T18:15:45.431Z,26.82
2018-07-12T18:16:45.480Z,26.82
2018-07-12T18:17:45.403Z,26.65
2018-07-12T18:18:45.385Z,26.57
2018-07-12T18:19:45.380Z,26.58
2018-07-12T18:20:45.367Z,26.60
2018-07-12T18:21:45.485Z,26.57
2018-07-12T18:22:45.350Z,26.57
2018-07-12T18:23:45.336Z,26.57
2018-07-12T18:24:45.322Z,26.57
2018-07-12T18:25:45.319Z,26.54
2018-07-12T18:26:45.390Z,26.55
2018-07-12T18:27:45.319Z,26.50
2018-07-12T18:28:45.289Z,26.52
2018-07-12T18:29:45.274Z,26.48
2018-07-12T18:30:45.262Z,26.28
2018-07-12T18:31:45.250Z,26.17
2018-07-12T18:32:45.308Z,25.98
2018-07-12T18:33:45.223Z,25.91
2018-07-12T18:34:45.220Z,25.94
2018-07-12T18:35:45.207Z,25.92
2018-07-12T18:36:45.199Z,25.88
2018-07-12T18:37:45.261Z,25.94
2018-07-12T18:38:45.185Z,25.87
2018-07-12T18:39:45.167Z,25.92
2018-07-12T18:40:45.156Z,25.90
2018-07-12T18:41:45.144Z,25.85
2018-07-12T18:42:45.201Z,25.85
2018-07-12T18:43:45.125Z,25.87
2018-07-12T18:44:45.115Z,25.80
2018-07-12T18:45:45.099Z,25.87
2018-07-12T18:46:45.092Z,25.85
2018-07-12T18:47:45.142Z,25.87
2018-07-12T18:48:45.061Z,25.85
2018-07-12T18:49:45.056Z,25.76
2018-07-12T18:50:45.052Z,25.91
2018-07-12T18:51:45.039Z,25.85
2018-07-12T18:52:45.096Z,25.85
2018-07-12T18:53:45.014Z,25.79
2018-07-12T18:54:45.007Z,25.79
2018-07-12T18:55:44.993Z,25.73
2018-07-12T18:56:44.983Z,25.64
2018-07-12T18:57:45.043Z,25.61
2018-07-12T18:58:44.965Z,25.54
2018-07-12T18:59:44.952Z,25.46
2018-07-12T19:00:44.937Z,25.51
2018-07-12T19:01:44.933Z,25.38
2018-07-12T19:02:44.992Z,25.30
2018-07-12T19:03:44.908Z,25.24
2018-07-12T19:04:44.894Z,25.18
2018-07-12T19:05:44.889Z,25.21
2018-07-12T19:06:44.875Z,25.13
2018-07-12T19:07:44.924Z,24.98
2018-07-12T19:08:44.889Z,25.00
2018-07-12T19:09:44.843Z,24.87
2018-07-12T19:10:44.833Z,24.85
2018-07-12T19:11:44.823Z,24.76
2018-07-12T19:12:44.883Z,24.71
2018-07-12T19:13:44.788Z,24.62
2018-07-12T19:14:44.840Z,24.64
2018-07-12T19:15:44.785Z,24.55
2018-07-12T19:16:44.769Z,24.53
2018-07-12T19:17:44.834Z,24.49
2018-07-12T19:18:44.741Z,24.45
2018-07-12T19:19:44.735Z,24.47
2018-07-12T19:20:44.798Z,24.35
2018-07-12T19:21:44.709Z,24.39
2018-07-12T19:22:44.782Z,24.32
2018-07-12T19:23:44.688Z,24.32
2018-07-12T19:24:44.679Z,24.31
2018-07-12T19:25:44.672Z,24.22
2018-07-12T19:26:44.660Z,24.25
2018-07-12T19:27:44.652Z,24.30
2018-07-12T19:28:44.699Z,24.25
2018-07-12T19:29:44.625Z,24.20
2018-07-12T19:30:44.621Z,24.20
2018-07-12T19:31:44.611Z,24.27
2018-07-12T19:32:44.600Z,24.24
2018-07-12T19:33:44.649Z,24.20
2018-07-12T19:34:44.589Z,24.20
2018-07-12T19:35:44.564Z,24.24
2018-07-12T19:36:44.555Z,24.18
2018-07-12T19:37:44.547Z,24.12
2018-07-12T19:38:44.599Z,24.12
2018-07-12T19:39:44.521Z,24.15
2018-07-12T19:40:44.509Z,24.06
2018-07-12T19:41:44.506Z,24.03
2018-07-12T19:42:44.484Z,23.98
2018-07-12T19:43:44.548Z,23.98
2018-07-12T19:44:44.466Z,23.94
2018-07-12T19:45:44.455Z,24.02
2018-07-12T19:46:44.501Z,23.87
2018-07-12T19:47:44.432Z,23.94
2018-07-12T19:48:44.496Z,23.87
2018-07-12T19:49:44.417Z,23.87
2018-07-12T19:50:44.403Z,23.85
2018-07-12T19:51:44.382Z,24.00
2018-07-12T19:52:44.374Z,23.90
2018-07-12T19:53:44.440Z,23.88
2018-07-12T19:54:44.354Z,23.87
2018-07-12T19:55:44.344Z,23.79
2018-07-12T19:56:44.335Z,23.83
2018-07-12T19:57:44.395Z,23.75
2018-07-12T19:58:44.374Z,23.84
2018-07-12T19:59:44.299Z,23.79
2018-07-12T20:00:44.293Z,23.79
2018-07-12T20:01:44.275Z,23.87
2018-07-12T20:02:44.264Z,23.88
2018-07-12T20:03:44.351Z,23.83
2018-07-12T20:04:44.242Z,23.95
2018-07-12T20:05:44.237Z,23.90
2018-07-12T20:06:44.225Z,23.87
2018-07-12T20:07:44.215Z,24.02
2018-07-12T20:08:44.267Z,23.98
2018-07-12T20:09:44.181Z,24.05
2018-07-12T20:10:44.184Z,24.00
2018-07-12T20:11:44.168Z,24.02
2018-07-12T20:12:44.160Z,24.05
2018-07-12T20:13:44.225Z,23.98
2018-07-12T20:14:44.136Z,23.97
2018-07-12T20:15:44.128Z,23.98
2018-07-12T20:16:44.114Z,24.00
2018-07-12T20:17:44.107Z,23.94
2018-07-12T20:18:44.096Z,23.98
2018-07-12T20:19:44.151Z,23.98
2018-07-12T20:20:44.070Z,23.91
2018-07-12T20:21:44.061Z,23.90
2018-07-12T20:22:44.057Z,23.88
2018-07-12T20:23:44.046Z,23.87
2018-07-12T20:24:44.112Z,23.85
2018-07-12T20:25:44.022Z,23.79
2018-07-12T20:26:44.003Z,23.80
2018-07-12T20:27:43.991Z,23.80
2018-07-12T20:28:43.983Z,23.84
2018-07-12T20:29:44.050Z,23.76
2018-07-12T20:30:43.961Z,23.80
2018-07-12T20:31:43.955Z,23.76
2018-07-12T20:32:43.943Z,23.66
2018-07-12T20:33:43.935Z,23.68
2018-07-12T20:34:43.983Z,23.63
2018-07-12T20:35:43.906Z,23.63
2018-07-12T20:36:43.908Z,23.66
2018-07-12T20:37:43.888Z,23.61
2018-07-12T20:38:43.871Z,23.58
2018-07-12T20:39:43.924Z,23.60
2018-07-12T20:40:43.875Z,23.58
2018-07-12T20:41:43.845Z,23.50
2018-07-12T20:42:43.828Z,23.50
2018-07-12T20:43:43.816Z,23.48
2018-07-12T20:44:43.885Z,23.46
2018-07-12T20:45:43.799Z,23.43
2018-07-12T20:46:43.790Z,23.40
2018-07-12T20:47:43.777Z,23.38
2018-07-12T20:48:43.764Z,23.38
2018-07-12T20:49:43.816Z,23.36
2018-07-12T20:50:43.747Z,23.33
2018-07-12T20:51:43.731Z,23.42
2018-07-12T20:52:43.723Z,23.27
2018-07-12T20:53:43.712Z,23.27
2018-07-12T20:54:43.821Z,23.23
2018-07-12T20:55:43.691Z,23.23
2018-07-12T20:56:43.679Z,23.22
2018-07-12T20:57:43.673Z,23.17
2018-07-12T20:58:43.659Z,23.25
2018-07-12T20:59:43.722Z,23.20
2018-07-12T21:00:43.740Z,23.16
2018-07-12T21:01:43.623Z,23.12
2018-07-12T21:02:43.612Z,23.17
2018-07-12T21:03:43.608Z,22.98
2018-07-12T21:04:43.595Z,23.04
2018-07-12T21:05:43.643Z,23.01
2018-07-12T21:06:43.567Z,22.97
2018-07-12T21:07:43.558Z,22.90
2018-07-12T21:08:43.549Z,22.90
2018-07-12T21:09:43.543Z,22.98
2018-07-12T21:10:43.597Z,22.85
2018-07-12T21:11:43.523Z,22.83
2018-07-12T21:12:43.500Z,22.83
2018-07-12T21:13:43.492Z,22.79
2018-07-12T21:14:43.480Z,22.83
2018-07-12T21:15:43.544Z,22.68
2018-07-12T21:16:43.462Z,22.68
2018-07-12T21:17:43.447Z,22.68
2018-07-12T21:18:43.441Z,22.68
2018-07-12T21:19:43.425Z,22.65
2018-07-12T21:20:43.491Z,22.64
2018-07-12T21:21:43.411Z,22.52
2018-07-12T21:22:43.394Z,22.52
2018-07-12T21:23:43.509Z,22.58
2018-07-12T21:24:43.374Z,22.57
2018-07-12T21:25:43.434Z,22.47
2018-07-12T21:26:43.355Z,22.43
2018-07-12T21:27:43.339Z,22.39
2018-07-12T21:28:43.326Z,22.46
2018-07-12T21:29:43.314Z,22.36
2018-07-12T21:30:43.381Z,22.36
2018-07-12T21:31:43.299Z,22.31
2018-07-12T21:32:43.292Z,22.28
2018-07-12T21:33:43.332Z,22.25
2018-07-12T21:34:43.263Z,22.31
2018-07-12T21:35:43.320Z,22.24
2018-07-12T21:36:43.241Z,22.24
2018-07-12T21:37:43.232Z,22.18
2018-07-12T21:38:43.222Z,22.21
2018-07-12T21:39:43.219Z,22.21
2018-07-12T21:40:43.275Z,22.14
2018-07-12T21:41:43.186Z,22.15
2018-07-12T21:42:43.176Z,22.09
2018-07-12T21:43:43.168Z,22.14
2018-07-12T21:44:43.159Z,22.05
2018-07-12T21:45:43.141Z,22.09
2018-07-12T21:46:43.194Z,22.02
2018-07-12T21:47:43.123Z,22.05
2018-07-12T21:48:43.107Z,21.99
2018-07-12T21:49:43.108Z,22.05
2018-07-12T21:50:43.093Z,21.92
2018-07-12T21:51:43.220Z,21.98
2018-07-12T21:52:43.069Z,21.88
2018-07-12T21:53:43.054Z,21.98
2018-07-12T21:54:43.044Z,21.90
2018-07-12T21:55:43.038Z,21.84
2018-07-12T21:56:43.101Z,21.79
2018-07-12T21:57:43.016Z,21.82
2018-07-12T21:58:43.007Z,21.82
2018-07-12T21:59:43.008Z,21.84
2018-07-12T22:00:42.985Z,21.79
2018-07-12T22:01:43.039Z,21.72
2018-07-12T22:02:42.964Z,21.75
2018-07-12T22:03:42.950Z,21.65
2018-07-12T22:04:42.942Z,21.72
2018-07-12T22:05:42.927Z,21.62
2018-07-12T22:06:42.995Z,21.54
2018-07-12T22:07:42.905Z,21.50
2018-07-12T22:08:42.894Z,21.31
2018-07-12T22:09:42.887Z,21.29
2018-07-12T22:10:42.871Z,21.24
2018-07-12T22:11:42.867Z,21.16
2018-07-12T22:12:42.931Z,21.14
2018-07-12T22:13:42.838Z,21.14
2018-07-12T22:14:42.832Z,21.17
2018-07-12T22:15:42.820Z,21.12
2018-07-12T22:16:42.813Z,21.07
2018-07-12T22:17:42.874Z,20.94
2018-07-12T22:18:42.789Z,21.01
2018-07-12T22:19:42.779Z,21.12
2018-07-12T22:20:42.769Z,21.07
2018-07-12T22:21:42.755Z,21.03
2018-07-12T22:22:42.819Z,20.98
2018-07-12T22:23:42.734Z,20.92
2018-07-12T22:24:42.726Z,20.91
2018-07-12T22:25:42.720Z,20.92
2018-07-12T22:26:42.704Z,20.94
2018-07-12T22:27:42.762Z,20.84
2018-07-12T22:28:42.681Z,20.89
2018-07-12T22:29:42.673Z,20.74
2018-07-12T22:30:42.659Z,20.72
2018-07-12T22:31:42.651Z,20.70
2018-07-12T22:32:42.705Z,20.82
2018-07-12T22:33:42.629Z,20.72
2018-07-12T22:34:42.617Z,20.64
2018-07-12T22:35:42.608Z,20.64
2018-07-12T22:36:42.596Z,20.54
2018-07-12T22:37:42.648Z,20.48
2018-07-12T22:38:42.571Z,20.35
2018-07-12T22:39:42.549Z,20.31
2018-07-12T22:40:42.562Z,20.28
2018-07-12T22:41:42.609Z,20.23
2018-07-12T22:42:42.595Z,20.23
2018-07-12T22:43:42.524Z,20.23
2018-07-12T22:44:42.517Z,20.14
2018-07-12T22:45:42.504Z,20.17
2018-07-12T22:46:42.492Z,20.06
2018-07-12T22:47:42.566Z,20.13
2018-07-12T22:48:42.476Z,20.11
2018-07-12T22:49:42.460Z,20.08
2018-07-12T22:50:42.444Z,20.13
2018-07-12T22:51:42.436Z,20.08
2018-07-12T22:52:42.497Z,19.96
2018-07-12T22:53:42.415Z,20.01
2018-07-12T22:54:42.397Z,19.99
2018-07-12T22:55:42.386Z,19.96
2018-07-12T22:56:42.381Z,19.99
2018-07-12T22:57:42.423Z,19.91
2018-07-12T22:58:42.358Z,19.96
2018-07-12T22:59:42.346Z,19.92
2018-07-12T23:00:42.344Z,19.87
2018-07-12T23:01:42.331Z,19.80
2018-07-12T23:02:42.391Z,19.78
2018-07-12T23:03:42.307Z,19.80
2018-07-12T23:04:42.293Z,19.76
2018-07-12T23:05:42.283Z,19.76
2018-07-12T23:06:42.307Z,19.78
2018-07-12T23:07:42.330Z,19.77
2018-07-12T23:08:42.248Z,19.76
2018-07-12T23:09:42.238Z,19.77
2018-07-12T23:10:42.239Z,19.73
2018-07-12T23:11:42.215Z,19.74
2018-07-12T23:12:42.288Z,19.78
2018-07-12T23:13:42.201Z,19.80
2018-07-12T23:14:42.197Z,19.77
2018-07-12T23:15:42.173Z,19.78
2018-07-12T23:16:42.168Z,19.77
2018-07-12T23:17:42.152Z,19.68
2018-07-12T23:18:42.218Z,19.69
2018-07-12T23:19:42.130Z,19.74
2018-07-12T23:20:42.119Z,19.66
2018-07-12T23:21:42.107Z,19.69
2018-07-12T23:22:42.095Z,19.61
2018-07-12T23:23:42.159Z,19.59
2018-07-12T23:24:42.080Z,19.39
2018-07-12T23:25:42.070Z,19.44
2018-07-12T23:26:42.058Z,19.26
2018-07-12T23:27:42.050Z,19.29
2018-07-12T23:28:42.110Z,19.23
2018-07-12T23:29:42.023Z,19.10
2018-07-12T23:30:42.014Z,19.21
2018-07-12T23:31:42.002Z,19.18
2018-07-12T23:32:41.987Z,19.11
2018-07-12T23:33:42.051Z,19.04
2018-07-12T23:34:41.967Z,19.07
2018-07-12T23:35:41.957Z,19.06
2018-07-12T23:36:41.951Z,18.92
2018-07-12T23:37:41.949Z,18.88
2018-07-12T23:38:41.992Z,18.90
2018-07-12T23:39:41.922Z,18.84
2018-07-12T23:40:41.912Z,18.84
2018-07-12T23:41:41.896Z,18.84
2018-07-12T23:42:41.879Z,18.76
2018-07-12T23:43:41.956Z,18.78
2018-07-12T23:44:41.856Z,18.82
2018-07-12T23:45:41.852Z,18.85
2018-07-12T23:46:41.837Z,18.72
2018-07-12T23:47:41.832Z,18.80
2018-07-12T23:48:41.882Z,18.76
2018-07-12T23:49:41.807Z,18.69
2018-07-12T23:50:41.797Z,18.69
2018-07-12T23:51:41.789Z,18.70
2018-07-12T23:52:41.773Z,18.63
2018-07-12T23:53:41.831Z,18.69
2018-07-12T23:54:41.753Z,18.55
2018-07-12T23:55:41.740Z,18.54
2018-07-12T23:56:41.728Z,18.44
2018-07-12T23:57:41.722Z,18.44
2018-07-12T23:58:41.780Z,18.42
2018-07-12T23:59:41.696Z,18.39
